Time;durP1;ratioP1;P1;durP2;ratioP2;P2;SDS_P1;SDS_P2;PMS_P1;PMS_P2;Temp;Humidity;BMP_temperature;BMP_pressure;BME280_temperature;BME280_humidity;BME280_pressure;Samples;Min_cycle;Max_cycle;Signal;HPM_P1;HPM_P2
2021/05/15 00:01:18;;;;;;;27.07;18.17;;;9.40;99.90;;;;;;5029598;28;20242;-64
2021/05/15 00:03:45;;;;;;;28.23;19.13;;;9.40;99.90;;;;;;5029779;28;20612;-64
2021/05/15 00:06:12;;;;;;;27.87;18.50;;;9.40;99.90;;;;;;5030763;28;20697;-64
2021/05/15 00:08:38;;;;;;;24.97;17.30;;;9.40;99.90;;;;;;5030570;28;20324;-64
2021/05/15 00:11:06;;;;;;;28.40;21.37;;;9.40;99.90;;;;;;5030330;28;20245;-64
2021/05/15 00:13:34;;;;;;;25.30;18.60;;;9.40;99.90;;;;;;5030764;28;20237;-64
2021/05/15 00:16:01;;;;;;;32.77;18.87;;;9.40;99.90;;;;;;5029949;28;20234;-64
2021/05/15 00:18:28;;;;;;;23.43;18.13;;;9.40;99.90;;;;;;5030682;28;20237;-64
2021/05/15 00:20:55;;;;;;;25.10;17.97;;;9.60;99.90;;;;;;5030008;28;20243;-64
2021/05/15 00:23:21;;;;;;;25.17;19.37;;;9.50;99.90;;;;;;5030610;28;20588;-64
2021/05/15 00:25:48;;;;;;;22.93;18.30;;;9.40;99.90;;;;;;5028636;28;20254;-64
2021/05/15 00:28:15;;;;;;;22.23;17.27;;;9.50;99.90;;;;;;5030117;28;20320;-64
2021/05/15 00:30:42;;;;;;;26.50;17.80;;;9.60;99.90;;;;;;5028591;28;20228;-64
2021/05/15 00:33:09;;;;;;;26.23;19.50;;;9.60;99.90;;;;;;5026080;28;20272;-64
2021/05/15 00:35:36;;;;;;;24.17;17.27;;;9.50;99.90;;;;;;5028102;28;20247;-64
2021/05/15 00:38:02;;;;;;;24.53;17.70;;;9.40;99.90;;;;;;5030694;28;20255;-64
2021/05/15 00:40:29;;;;;;;29.77;19.40;;;9.60;99.90;;;;;;5029962;28;20257;-64
2021/05/15 00:42:56;;;;;;;23.60;18.33;;;9.50;99.90;;;;;;5029931;28;20276;-64
2021/05/15 00:45:23;;;;;;;24.73;17.87;;;9.30;99.90;;;;;;5029897;28;20241;-64
2021/05/15 00:47:50;;;;;;;22.43;16.40;;;9.30;99.90;;;;;;5029811;28;20245;-64
2021/05/15 00:50:17;;;;;;;26.87;18.10;;;9.40;99.90;;;;;;5028160;28;20240;-64
2021/05/15 00:52:46;;;;;;;23.00;17.17;;;9.40;99.90;;;;;;5029812;28;20270;-64
2021/05/15 00:55:15;;;;;;;23.97;17.87;;;9.40;99.90;;;;;;5029081;28;20237;-64
2021/05/15 00:57:42;;;;;;;25.53;17.60;;;9.40;99.90;;;;;;5029554;28;20241;-64
2021/05/15 01:00:12;;;;;;;24.30;19.40;;;9.40;99.90;;;;;;5029534;28;20653;-64
2021/05/15 01:02:39;;;;;;;25.57;17.07;;;9.30;99.90;;;;;;5029678;28;20266;-64
2021/05/15 01:05:10;;;;;;;23.77;16.47;;;9.30;99.90;;;;;;5029096;28;20650;-64
2021/05/15 01:07:37;;;;;;;27.73;19.23;;;9.30;99.90;;;;;;5029631;28;20838;-64
2021/05/15 01:10:06;;;;;;;23.80;18.50;;;9.20;99.90;;;;;;5029291;28;20598;-64
2021/05/15 01:12:32;;;;;;;22.40;16.90;;;9.20;99.90;;;;;;5028945;28;20272;-64
2021/05/15 01:14:59;;;;;;;26.50;17.60;;;9.30;99.90;;;;;;5028244;28;20261;-64
2021/05/15 01:17:26;;;;;;;26.43;18.17;;;9.40;99.90;;;;;;5029066;28;20238;-64
2021/05/15 01:19:54;;;;;;;27.23;18.07;;;9.30;99.90;;;;;;5028945;28;20258;-64
2021/05/15 01:22:22;;;;;;;27.00;17.70;;;9.30;99.90;;;;;;5028927;28;20280;-64
2021/05/15 01:24:48;;;;;;;25.67;18.20;;;9.30;99.90;;;;;;5027868;28;20633;-64
2021/05/15 01:27:15;;;;;;;24.27;18.83;;;9.40;99.90;;;;;;5026678;28;20734;-64
2021/05/15 01:29:43;;;;;;;24.03;16.97;;;9.40;99.90;;;;;;5028660;28;20262;-64
2021/05/15 01:32:11;;;;;;;25.73;17.93;;;9.40;99.90;;;;;;5024492;28;20243;-64
2021/05/15 01:34:40;;;;;;;23.23;18.43;;;9.40;99.90;;;;;;5028073;28;20235;-64
2021/05/15 01:37:07;;;;;;;25.40;17.90;;;9.40;99.90;;;;;;5028486;28;20238;-64
2021/05/15 01:39:34;;;;;;;25.57;18.93;;;9.40;99.90;;;;;;5029129;28;20248;-64
2021/05/15 01:42:01;;;;;;;25.10;18.57;;;9.40;99.90;;;;;;5028998;28;20242;-64
2021/05/15 01:44:30;;;;;;;27.13;19.03;;;9.40;99.90;;;;;;5028100;28;20237;-64
2021/05/15 01:46:57;;;;;;;27.50;20.00;;;9.40;99.90;;;;;;5028934;28;20704;-64
2021/05/15 01:49:24;;;;;;;26.40;18.43;;;9.40;99.90;;;;;;5028429;28;20562;-64
2021/05/15 01:51:50;;;;;;;28.67;19.90;;;9.40;99.90;;;;;;5028232;28;20236;-64
2021/05/15 01:54:30;;;;;;;23.91;18.80;;;9.40;99.90;;;;;;3501832;28;10021493;-64
2021/05/15 01:56:58;;;;;;;27.93;20.70;;;9.30;99.90;;;;;;2947934;28;10001932;-64
2021/05/15 01:59:24;;;;;;;26.53;19.60;;;9.30;99.90;;;;;;5027763;28;20545;-64
2021/05/15 02:01:51;;;;;;;24.27;18.87;;;9.40;99.90;;;;;;5027436;28;20233;-64
2021/05/15 02:04:18;;;;;;;25.13;18.23;;;9.40;99.90;;;;;;5027903;28;20704;-64
2021/05/15 02:06:44;;;;;;;26.30;19.80;;;9.40;99.90;;;;;;5028231;28;20251;-64
2021/05/15 02:09:11;;;;;;;23.80;17.73;;;9.40;99.90;;;;;;5027586;28;20244;-64
2021/05/15 02:11:39;;;;;;;26.77;17.57;;;9.40;99.90;;;;;;5026775;28;20307;-64
2021/05/15 02:14:06;;;;;;;27.33;19.37;;;9.40;99.90;;;;;;5027360;28;20243;-64
2021/05/15 02:16:33;;;;;;;32.50;21.30;;;9.40;99.90;;;;;;5027283;28;20240;-64
2021/05/15 02:19:00;;;;;;;27.63;20.77;;;9.40;99.90;;;;;;5027565;28;20232;-64
2021/05/15 02:21:27;;;;;;;26.57;19.67;;;9.30;99.90;;;;;;5026760;28;20796;-64
2021/05/15 02:23:54;;;;;;;27.33;20.20;;;9.30;99.90;;;;;;5025576;28;20241;-64
2021/05/15 02:26:20;;;;;;;27.07;20.20;;;9.20;99.90;;;;;;5023239;28;20906;-64
2021/05/15 02:28:47;;;;;;;29.30;19.47;;;9.20;99.90;;;;;;5024784;28;20239;-64
2021/05/15 02:31:15;;;;;;;27.03;20.60;;;9.20;99.90;;;;;;5025818;28;20241;-64
2021/05/15 02:33:41;;;;;;;28.40;20.40;;;9.20;99.90;;;;;;5026196;28;20589;-64
2021/05/15 02:36:10;;;;;;;27.90;17.47;;;9.10;99.90;;;;;;5026652;28;20238;-64
2021/05/15 02:38:37;;;;;;;28.57;19.00;;;9.20;99.90;;;;;;5026770;28;20668;-64
2021/05/15 02:41:03;;;;;;;25.57;17.40;;;9.30;99.90;;;;;;5026756;28;20332;-64
2021/05/15 02:43:30;;;;;;;23.93;17.80;;;9.40;99.90;;;;;;5026538;28;20248;-64
2021/05/15 02:45:57;;;;;;;24.20;18.03;;;9.30;99.90;;;;;;5026369;28;20240;-64
2021/05/15 02:48:24;;;;;;;23.23;16.87;;;9.20;99.90;;;;;;5026232;28;20231;-64
2021/05/15 02:50:52;;;;;;;25.43;19.97;;;9.30;99.90;;;;;;5026036;28;20332;-64
2021/05/15 02:53:19;;;;;;;24.47;19.60;;;9.20;99.90;;;;;;5026254;28;20250;-64
2021/05/15 02:55:46;;;;;;;25.83;19.50;;;9.10;99.90;;;;;;5026257;28;20256;-64
2021/05/15 02:58:16;;;;;;;24.37;17.30;;;9.20;99.90;;;;;;5027377;28;20744;-64
2021/05/15 03:00:43;;;;;;;25.40;15.27;;;9.10;99.90;;;;;;5027134;28;20236;-64
2021/05/15 03:03:10;;;;;;;28.50;18.57;;;9.30;99.90;;;;;;5027674;28;20240;-64
2021/05/15 03:05:38;;;;;;;25.03;17.73;;;9.20;99.90;;;;;;5026933;28;20260;-64
2021/05/15 03:08:05;;;;;;;24.77;18.80;;;9.30;99.90;;;;;;5027766;28;20244;-64
2021/05/15 03:10:32;;;;;;;24.27;18.17;;;9.20;99.90;;;;;;5026870;28;20574;-64
2021/05/15 03:12:58;;;;;;;25.40;17.60;;;9.20;99.90;;;;;;5027522;28;20237;-64
2021/05/15 03:15:26;;;;;;;23.57;17.97;;;9.20;99.90;;;;;;5031242;28;20240;-64
2021/05/15 03:17:54;;;;;;;21.77;16.43;;;9.20;99.90;;;;;;5031764;28;20234;-64
2021/05/15 03:20:23;;;;;;;20.10;16.80;;;9.20;99.90;;;;;;5031453;28;20236;-64
2021/05/15 03:22:51;;;;;;;23.63;18.37;;;9.20;99.90;;;;;;5029355;28;20321;-64
2021/05/15 03:25:19;;;;;;;22.03;15.63;;;9.30;99.90;;;;;;5028984;28;20240;-64
2021/05/15 03:27:46;;;;;;;21.60;17.50;;;9.30;99.90;;;;;;5028067;28;20241;-64
2021/05/15 03:30:15;;;;;;;22.47;15.53;;;9.30;99.90;;;;;;5030270;28;20280;-64
2021/05/15 03:32:42;;;;;;;22.10;17.33;;;9.30;99.90;;;;;;5031240;28;20300;-64
2021/05/15 03:35:11;;;;;;;21.63;16.63;;;9.30;99.90;;;;;;5030894;28;20552;-64
2021/05/15 03:37:39;;;;;;;21.37;15.07;;;9.30;99.90;;;;;;5031215;28;20240;-64
2021/05/15 03:40:09;;;;;;;19.17;14.40;;;9.20;99.90;;;;;;5030522;28;20234;-64
2021/05/15 03:42:37;;;;;;;22.43;16.67;;;9.30;99.90;;;;;;5031137;28;20236;-64
2021/05/15 03:45:06;;;;;;;23.90;16.17;;;9.20;99.90;;;;;;5028757;28;20722;-64
2021/05/15 03:47:33;;;;;;;22.17;16.90;;;9.20;99.90;;;;;;5031215;28;20245;-64
2021/05/15 03:50:00;;;;;;;20.73;14.60;;;9.30;99.90;;;;;;5030487;28;20263;-64
2021/05/15 03:52:27;;;;;;;24.40;16.23;;;9.30;99.90;;;;;;5030473;28;20255;-64
2021/05/15 03:54:53;;;;;;;21.73;16.57;;;9.30;99.90;;;;;;5030411;28;20279;-64
2021/05/15 03:57:21;;;;;;;22.00;15.80;;;9.30;99.90;;;;;;5029858;28;20258;-64
2021/05/15 03:59:47;;;;;;;23.87;16.17;;;9.40;99.90;;;;;;5030205;28;20292;-64
2021/05/15 04:02:14;;;;;;;18.97;14.13;;;9.30;99.90;;;;;;5030652;28;20264;-64
2021/05/15 04:04:41;;;;;;;23.20;16.70;;;9.40;99.90;;;;;;5030253;28;20240;-64
2021/05/15 04:07:08;;;;;;;21.10;14.83;;;9.40;99.90;;;;;;5029988;28;20248;-64
2021/05/15 04:09:34;;;;;;;20.40;15.00;;;9.40;99.90;;;;;;5030726;28;20316;-64
2021/05/15 04:12:01;;;;;;;21.13;16.77;;;9.50;99.90;;;;;;5030983;28;20237;-64
2021/05/15 04:14:33;;;;;;;20.03;14.27;;;9.40;99.90;;;;;;5030101;28;20656;-64
2021/05/15 04:19:48;;;;;;;22.97;15.63;;;9.50;99.90;;;;;;5026193;28;20354;-64
2021/05/15 04:22:15;;;;;;;21.10;14.37;;;9.40;99.90;;;;;;5027215;28;20239;-64
2021/05/15 04:24:42;;;;;;;20.17;15.53;;;9.50;99.90;;;;;;5026499;28;20236;-64
2021/05/15 04:27:09;;;;;;;25.80;16.27;;;9.50;99.90;;;;;;5028026;28;20710;-64
2021/05/15 04:29:36;;;;;;;22.47;16.40;;;9.40;99.90;;;;;;5045156;28;20245;-64
2021/05/15 04:32:04;;;;;;;24.47;15.93;;;9.40;99.90;;;;;;5029990;28;20260;-64
2021/05/15 04:34:31;;;;;;;22.67;14.83;;;9.40;99.90;;;;;;5030110;28;20367;-64
2021/05/15 04:36:59;;;;;;;19.33;15.00;;;9.40;99.90;;;;;;5045460;28;20265;-64
2021/05/15 04:39:26;;;;;;;23.40;16.27;;;9.40;99.90;;;;;;5029873;28;20329;-64
2021/05/15 04:41:53;;;;;;;21.27;15.80;;;9.40;99.90;;;;;;5029829;28;20325;-64
2021/05/15 04:44:20;;;;;;;19.93;14.83;;;9.50;99.90;;;;;;5029906;28;20643;-64
2021/05/15 04:46:47;;;;;;;20.90;14.67;;;9.40;99.90;;;;;;5029082;28;20771;-64
2021/05/15 04:49:14;;;;;;;21.53;14.77;;;9.40;99.90;;;;;;5029575;28;20234;-64
2021/05/15 04:51:41;;;;;;;19.13;14.37;;;9.40;99.90;;;;;;5029579;28;20258;-64
2021/05/15 04:54:09;;;;;;;21.97;15.10;;;9.40;99.90;;;;;;5029878;28;20249;-64
2021/05/15 04:56:36;;;;;;;23.90;15.70;;;9.40;99.90;;;;;;5029863;28;20261;-64
2021/05/15 04:59:03;;;;;;;21.10;14.27;;;9.40;99.90;;;;;;5029518;28;20241;-64
2021/05/15 05:01:30;;;;;;;22.27;15.00;;;9.40;99.90;;;;;;5029542;28;20236;-64
2021/05/15 05:03:58;;;;;;;21.50;14.50;;;9.40;99.90;;;;;;5029748;28;20707;-64
2021/05/15 05:06:25;;;;;;;19.37;14.90;;;9.50;99.90;;;;;;5029502;28;20324;-64
2021/05/15 05:08:51;;;;;;;26.77;15.83;;;9.40;99.90;;;;;;5029342;28;20758;-64
2021/05/15 05:11:18;;;;;;;19.57;15.23;;;9.40;99.90;;;;;;5028832;28;20235;-64
2021/05/15 05:13:45;;;;;;;18.30;14.37;;;9.40;99.90;;;;;;5029057;28;20295;-64
2021/05/15 05:16:11;;;;;;;20.93;15.70;;;9.60;99.90;;;;;;5028137;28;20808;-64
2021/05/15 05:18:38;;;;;;;19.70;14.83;;;9.60;99.90;;;;;;5028678;28;20245;-64
2021/05/15 05:21:05;;;;;;;18.37;13.93;;;9.60;99.90;;;;;;5028545;28;20246;-64
2021/05/15 05:23:32;;;;;;;20.53;14.27;;;9.50;99.90;;;;;;5029135;28;20686;-64
2021/05/15 05:25:59;;;;;;;17.23;13.10;;;9.60;99.90;;;;;;5028845;28;20239;-64
2021/05/15 05:28:32;;;;;;;22.33;13.87;;;9.70;99.90;;;;;;5029124;28;20241;-64
2021/05/15 05:30:59;;;;;;;16.80;13.23;;;9.70;99.90;;;;;;5028916;28;20702;-64
2021/05/15 05:33:25;;;;;;;20.23;13.70;;;9.60;99.90;;;;;;5029282;28;20245;-64
2021/05/15 05:35:52;;;;;;;19.33;13.83;;;9.70;99.90;;;;;;5028051;28;20759;-64
2021/05/15 05:38:20;;;;;;;16.17;12.73;;;9.70;99.90;;;;;;5029274;28;20239;-64
2021/05/15 05:40:46;;;;;;;17.63;12.60;;;9.80;99.90;;;;;;5028048;28;20233;-64
2021/05/15 05:43:13;;;;;;;20.43;12.60;;;9.90;99.90;;;;;;5028734;28;20445;-64
2021/05/15 05:45:40;;;;;;;17.77;12.90;;;9.80;99.90;;;;;;5028515;28;20243;-64
2021/05/15 05:48:07;;;;;;;18.47;13.67;;;9.90;99.90;;;;;;5029136;28;20310;-64
2021/05/15 05:50:34;;;;;;;19.57;14.33;;;9.90;99.90;;;;;;5028503;28;20234;-64
2021/05/15 05:53:01;;;;;;;18.87;13.27;;;9.90;99.90;;;;;;5028536;28;20240;-64
2021/05/15 05:55:28;;;;;;;18.80;14.20;;;9.80;99.90;;;;;;5027929;28;20237;-64
2021/05/15 05:57:55;;;;;;;21.00;13.17;;;9.80;99.90;;;;;;5028477;28;20240;-64
2021/05/15 06:00:23;;;;;;;18.43;14.13;;;9.90;99.90;;;;;;5027552;28;20257;-64
2021/05/15 06:02:49;;;;;;;20.80;13.97;;;9.90;99.90;;;;;;5019941;28;20287;-64
2021/05/15 06:05:16;;;;;;;19.27;14.37;;;9.90;99.90;;;;;;5026972;28;20457;-64
2021/05/15 06:07:43;;;;;;;19.43;13.70;;;9.90;99.90;;;;;;5026916;28;20744;-64
2021/05/15 06:10:11;;;;;;;20.90;13.67;;;10.00;99.90;;;;;;5026185;28;20242;-64
2021/05/15 06:12:38;;;;;;;17.70;13.57;;;9.90;99.90;;;;;;5026972;28;20240;-64
2021/05/15 06:15:07;;;;;;;17.97;13.33;;;10.00;99.90;;;;;;5026696;28;20333;-64
2021/05/15 06:17:34;;;;;;;18.87;13.27;;;10.10;99.90;;;;;;5021712;28;20238;-64
2021/05/15 06:20:01;;;;;;;17.73;13.57;;;10.10;99.90;;;;;;5025580;28;20692;-64
2021/05/15 06:22:27;;;;;;;18.70;13.53;;;10.10;99.90;;;;;;5039633;28;20758;-64
2021/05/15 06:24:54;;;;;;;18.27;13.23;;;10.20;99.90;;;;;;5024236;28;20287;-64
2021/05/15 06:27:21;;;;;;;16.30;11.73;;;10.20;99.90;;;;;;5024745;28;20740;-64
2021/05/15 06:29:48;;;;;;;17.50;13.30;;;10.30;99.90;;;;;;5024389;28;20648;-64
2021/05/15 06:32:15;;;;;;;19.63;13.63;;;10.30;99.90;;;;;;5025196;28;20285;-64
2021/05/15 06:34:41;;;;;;;18.47;12.93;;;10.30;99.90;;;;;;5037192;28;20249;-64
2021/05/15 06:37:08;;;;;;;18.60;13.20;;;10.40;99.90;;;;;;5006404;28;20255;-64
2021/05/15 06:39:35;;;;;;;19.30;13.53;;;10.40;99.90;;;;;;5006653;28;20257;-64
2021/05/15 06:42:01;;;;;;;17.63;12.83;;;10.50;99.90;;;;;;5020681;28;20233;-64
2021/05/15 06:44:28;;;;;;;16.57;12.87;;;10.50;99.90;;;;;;5026366;28;20246;-64
2021/05/15 06:46:57;;;;;;;17.13;12.87;;;10.50;99.90;;;;;;5026264;28;20305;-64
2021/05/15 06:49:24;;;;;;;18.93;13.30;;;10.60;99.90;;;;;;5025224;28;20246;-64
2021/05/15 06:51:50;;;;;;;16.93;12.50;;;10.70;99.90;;;;;;5025711;28;20675;-64
2021/05/15 06:54:17;;;;;;;16.87;12.30;;;10.70;99.90;;;;;;5025792;28;20246;-64
2021/05/15 06:56:44;;;;;;;18.30;13.70;;;10.80;99.90;;;;;;5025991;28;20318;-64
2021/05/15 06:59:10;;;;;;;18.20;13.33;;;10.70;99.90;;;;;;5025978;28;20247;-64
2021/05/15 07:01:37;;;;;;;17.33;13.37;;;10.80;99.90;;;;;;5025673;28;20246;-64
2021/05/15 07:04:05;;;;;;;14.83;12.50;;;10.80;99.90;;;;;;5025636;28;20246;-64
2021/05/15 07:06:32;;;;;;;18.93;13.00;;;10.80;99.90;;;;;;5024596;28;20545;-64
2021/05/15 07:08:59;;;;;;;16.73;13.17;;;10.80;99.90;;;;;;5026183;28;20252;-64
2021/05/15 07:11:25;;;;;;;14.60;11.80;;;10.80;99.90;;;;;;5025235;28;20230;-64
2021/05/15 07:13:52;;;;;;;15.33;12.83;;;10.90;99.90;;;;;;5025365;28;20293;-64
2021/05/15 07:16:19;;;;;;;17.20;13.27;;;10.90;99.90;;;;;;5024237;28;20603;-64
2021/05/15 07:18:45;;;;;;;16.93;12.67;;;11.00;99.90;;;;;;5025590;28;20247;-64
2021/05/15 07:21:13;;;;;;;16.70;13.20;;;11.00;99.90;;;;;;5025222;28;20312;-64
2021/05/15 07:23:40;;;;;;;18.87;13.67;;;11.00;99.90;;;;;;5025789;28;20238;-64
2021/05/15 07:26:08;;;;;;;18.13;13.13;;;11.00;99.90;;;;;;5041171;28;20325;-64
2021/05/15 07:28:35;;;;;;;19.20;13.17;;;11.10;99.90;;;;;;5028115;28;20698;-64
2021/05/15 07:31:01;;;;;;;19.67;12.67;;;11.10;99.90;;;;;;5027161;28;20238;-64
2021/05/15 07:33:28;;;;;;;19.50;13.33;;;11.20;99.90;;;;;;5027129;28;20354;-64
2021/05/15 07:35:55;;;;;;;16.53;12.93;;;11.20;99.90;;;;;;5026870;28;20242;-64
2021/05/15 07:38:23;;;;;;;11.23;7.80;;;11.20;99.90;;;;;;5027468;28;20258;-64
2021/05/15 07:40:49;;;;;;;16.13;11.60;;;12.70;99.90;;;;;;5026049;28;20315;-66
2021/05/15 07:43:22;;;;;;;22.50;12.40;;;13.10;99.90;;;;;;5026268;28;20246;-66
2021/05/15 07:45:49;;;;;;;18.70;12.90;;;12.60;99.90;;;;;;5025138;28;20689;-66
2021/05/15 07:48:16;;;;;;;19.13;13.50;;;12.30;99.90;;;;;;5023688;28;20235;-66
2021/05/15 07:50:42;;;;;;;21.27;14.77;;;11.90;99.90;;;;;;5025278;28;20240;-66
2021/05/15 07:53:09;;;;;;;19.83;13.73;;;11.60;99.90;;;;;;5026071;28;20604;-66
2021/05/15 07:55:37;;;;;;;17.40;13.27;;;11.60;99.90;;;;;;5029454;28;20767;-66
2021/05/15 07:58:03;;;;;;;17.87;12.97;;;11.60;99.90;;;;;;5029466;28;20617;-65
2021/05/15 08:00:30;;;;;;;18.73;14.20;;;11.70;99.90;;;;;;5028042;28;20595;-66
2021/05/15 08:02:57;;;;;;;18.67;13.00;;;11.70;99.90;;;;;;5030367;28;20324;-65
2021/05/15 08:05:24;;;;;;;17.23;12.33;;;11.70;99.90;;;;;;5041558;28;20236;-66
2021/05/15 08:07:51;;;;;;;18.30;12.83;;;11.80;99.90;;;;;;5029856;28;20292;-66
2021/05/15 08:10:17;;;;;;;16.33;13.17;;;12.00;99.90;;;;;;5027555;28;20228;-64
2021/05/15 08:12:45;;;;;;;18.17;13.57;;;12.10;99.90;;;;;;5029617;28;20232;-64
2021/05/15 08:15:12;;;;;;;18.13;12.60;;;12.20;99.90;;;;;;5028693;28;20243;-64
2021/05/15 08:17:38;;;;;;;18.53;13.27;;;12.40;99.90;;;;;;5030152;28;20244;-64
2021/05/15 08:20:07;;;;;;;17.77;13.77;;;12.60;99.90;;;;;;5030017;28;20324;-64
2021/05/15 08:22:34;;;;;;;17.63;13.30;;;12.60;99.90;;;;;;5025579;28;20724;-64
2021/05/15 08:25:00;;;;;;;20.37;12.97;;;12.60;99.90;;;;;;5031969;28;20252;-64
2021/05/15 08:27:27;;;;;;;18.13;13.67;;;12.60;99.90;;;;;;5028954;28;20319;-64
2021/05/15 08:29:55;;;;;;;18.07;13.70;;;12.50;99.90;;;;;;5028180;28;20745;-64
2021/05/15 08:32:21;;;;;;;18.00;14.43;;;12.60;99.90;;;;;;5027518;28;20238;-64
2021/05/15 08:34:48;;;;;;;19.20;14.33;;;12.70;99.90;;;;;;5024046;28;20698;-64
2021/05/15 08:37:15;;;;;;;22.27;14.03;;;12.80;99.90;;;;;;5027372;28;20249;-64
2021/05/15 08:39:41;;;;;;;20.20;15.13;;;12.80;99.90;;;;;;5027967;28;20447;-64
2021/05/15 08:42:08;;;;;;;18.80;13.07;;;12.90;99.90;;;;;;5027027;28;20763;-64
2021/05/15 08:44:38;;;;;;;18.03;14.03;;;13.10;99.90;;;;;;5029334;28;20243;-64
2021/05/15 08:47:09;;;;;;;16.83;13.77;;;13.40;99.90;;;;;;5030163;28;20293;-64
2021/05/15 08:49:37;;;;;;;18.83;14.00;;;13.30;99.90;;;;;;5028852;28;20234;-64
2021/05/15 08:52:05;;;;;;;17.80;13.70;;;13.40;99.90;;;;;;5029241;28;20239;-64
2021/05/15 08:54:33;;;;;;;18.80;13.77;;;13.40;99.90;;;;;;5028748;28;20237;-64
2021/05/15 08:57:00;;;;;;;15.03;12.40;;;13.40;99.90;;;;;;5029305;28;20763;-64
2021/05/15 08:59:27;;;;;;;18.60;13.30;;;13.50;99.90;;;;;;5029290;28;20650;-64
2021/05/15 09:01:55;;;;;;;16.67;13.27;;;13.50;99.90;;;;;;5029931;28;20314;-64
2021/05/15 09:04:25;;;;;;;16.83;13.83;;;13.50;99.90;;;;;;5029114;28;20246;-64
2021/05/15 09:06:53;;;;;;;18.33;14.10;;;13.40;99.90;;;;;;5028733;28;20251;-64
2021/05/15 09:09:21;;;;;;;19.00;14.20;;;13.30;99.90;;;;;;5028561;28;20271;-64
2021/05/15 09:11:50;;;;;;;15.60;13.30;;;13.30;99.90;;;;;;5026618;28;20278;-64
2021/05/15 09:14:20;;;;;;;16.97;12.20;;;13.30;99.90;;;;;;5026929;28;20907;-64
2021/05/15 09:16:50;;;;;;;18.77;13.13;;;13.40;99.90;;;;;;5028175;28;20267;-65
2021/05/15 09:19:19;;;;;;;16.73;14.90;;;13.60;99.90;;;;;;5027869;28;20442;-54
2021/05/15 09:21:59;;;;;;;18.13;14.07;;;13.70;99.90;;;;;;5028234;28;20330;-63
2021/05/15 09:24:33;;;;;;;15.70;13.70;;;13.70;99.90;;;;;;5028488;28;20686;-63
2021/05/15 09:27:05;;;;;;;20.20;14.03;;;13.80;99.90;;;;;;5028725;28;20298;-63
2021/05/15 09:29:41;;;;;;;17.17;13.27;;;13.90;99.90;;;;;;5028345;28;20626;-63
2021/05/15 09:32:09;;;;;;;19.17;13.73;;;13.90;99.90;;;;;;5028335;28;20248;-63
2021/05/15 09:34:45;;;;;;;19.13;14.97;;;14.00;99.90;;;;;;5029106;28;20310;-63
2021/05/15 09:37:29;;;;;;;19.03;14.33;;;14.10;99.90;;;;;;5028839;28;20677;-63
2021/05/15 09:39:57;;;;;;;17.47;13.73;;;14.00;99.90;;;;;;5028011;28;20708;-63
2021/05/15 09:42:25;;;;;;;20.13;14.10;;;14.10;99.90;;;;;;5028283;28;20247;-62
2021/05/15 09:44:53;;;;;;;15.57;13.43;;;14.10;99.90;;;;;;5028426;28;20236;-62
2021/05/15 09:47:21;;;;;;;17.70;13.67;;;14.20;99.90;;;;;;5028563;28;20275;-62
2021/05/15 09:49:52;;;;;;;17.70;13.70;;;14.30;99.90;;;;;;5027636;28;20240;-62
2021/05/15 09:52:31;;;;;;;21.17;13.37;;;14.30;99.90;;;;;;5028256;28;20247;-62
2021/05/15 09:55:09;;;;;;;17.73;14.27;;;14.40;99.90;;;;;;5027491;28;20576;-62
2021/05/15 09:57:37;;;;;;;16.00;13.63;;;14.50;99.90;;;;;;5027592;28;20240;-62
2021/05/15 10:00:11;;;;;;;17.47;14.57;;;14.40;99.90;;;;;;5027562;28;20242;-62
2021/05/15 10:02:40;;;;;;;18.27;13.43;;;14.70;99.90;;;;;;5027100;28;20247;-62
2021/05/15 10:05:12;;;;;;;17.33;13.77;;;14.80;99.90;;;;;;5016125;28;20251;-62
2021/05/15 10:07:41;;;;;;;18.53;13.27;;;14.80;99.90;;;;;;5043189;28;20859;-62
2021/05/15 10:10:10;;;;;;;15.00;12.83;;;14.90;99.90;;;;;;5025934;28;20267;-62
2021/05/15 10:12:38;;;;;;;19.50;14.50;;;15.10;99.90;;;;;;5024179;28;20324;-62
2021/05/15 10:15:08;;;;;;;16.40;13.77;;;15.30;99.90;;;;;;5027829;28;20691;-62
2021/05/15 10:17:37;;;;;;;19.17;15.03;;;15.50;99.90;;;;;;5027680;28;20282;-62
2021/05/15 10:20:08;;;;;;;17.70;13.87;;;15.60;99.90;;;;;;5027170;28;20267;-62
2021/05/15 10:22:41;;;;;;;17.87;14.23;;;15.80;99.90;;;;;;5027141;28;20240;-62
2021/05/15 10:25:14;;;;;;;16.77;14.80;;;15.80;99.90;;;;;;5025686;28;20232;-62
2021/05/15 10:27:43;;;;;;;19.47;15.67;;;15.80;99.90;;;;;;5025882;28;20631;-62
2021/05/15 10:30:19;;;;;;;17.43;14.67;;;15.90;99.90;;;;;;5026075;28;20324;-62
2021/05/15 10:32:56;;;;;;;18.23;14.47;;;16.10;99.90;;;;;;5025761;28;20408;-62
2021/05/15 10:35:32;;;;;;;20.93;16.20;;;16.10;99.90;;;;;;5025377;28;20224;-62
2021/05/15 10:38:10;;;;;;;20.80;16.60;;;16.00;99.90;;;;;;5026374;28;20240;-62
2021/05/15 10:40:49;;;;;;;21.17;16.20;;;16.10;99.90;;;;;;5025603;28;20236;-62
2021/05/15 10:43:31;;;;;;;22.03;16.33;;;16.40;99.90;;;;;;5026410;28;20489;-62
2021/05/15 10:45:59;;;;;;;21.83;15.90;;;16.90;99.90;;;;;;5026269;28;20235;-62
2021/05/15 10:48:28;;;;;;;22.77;16.90;;;17.40;99.90;;;;;;5027538;28;20323;-62
2021/05/15 10:50:58;;;;;;;20.67;16.30;;;18.10;99.90;;;;;;5027133;28;20236;-62
2021/05/15 10:53:29;;;;;;;24.40;17.47;;;18.10;99.90;;;;;;5027266;28;20233;-62
2021/05/15 10:56:11;;;;;;;22.27;15.73;;;17.50;99.90;;;;;;5027246;28;20291;-62
2021/05/15 10:58:43;;;;;;;23.97;17.80;;;17.40;99.90;;;;;;5027779;28;20343;-62
2021/05/15 11:01:15;;;;;;;24.90;16.37;;;17.30;99.90;;;;;;5027198;28;20310;-62
2021/05/15 11:03:48;;;;;;;22.10;16.07;;;17.40;99.90;;;;;;5026466;28;20734;-62
2021/05/15 11:06:20;;;;;;;20.57;16.03;;;17.70;99.90;;;;;;5025223;28;20638;-62
2021/05/15 11:08:59;;;;;;;21.30;16.67;;;17.50;99.90;;;;;;5026612;28;20271;-62
2021/05/15 11:11:39;;;;;;;22.50;16.10;;;17.40;99.90;;;;;;5019586;28;20298;-62
2021/05/15 11:14:27;;;;;;;21.63;16.47;;;17.80;99.90;;;;;;5027936;28;20239;-62
2021/05/15 11:17:15;;;;;;;20.97;16.17;;;18.40;99.90;;;;;;5024170;28;20309;-62
2021/05/15 11:19:55;;;;;;;22.67;16.77;;;18.50;99.90;;;;;;5025837;28;20321;-62
2021/05/15 11:22:39;;;;;;;22.37;16.17;;;18.20;99.90;;;;;;5026446;28;20229;-62
2021/05/15 11:25:21;;;;;;;21.03;15.63;;;17.80;99.90;;;;;;5024525;28;20241;-62
2021/05/15 11:27:51;;;;;;;19.97;16.10;;;17.70;99.90;;;;;;5024045;28;20240;-62
2021/05/15 11:30:21;;;;;;;20.60;14.67;;;17.60;99.90;;;;;;5025551;28;20291;-62
2021/05/15 11:33:02;;;;;;;19.27;15.27;;;17.60;99.90;;;;;;5025125;28;20234;-62
2021/05/15 11:35:32;;;;;;;19.60;15.20;;;17.80;99.90;;;;;;5028044;28;20243;-62
2021/05/15 11:38:02;;;;;;;18.50;15.07;;;18.10;99.90;;;;;;5029484;28;20234;-62
2021/05/15 11:40:33;;;;;;;20.33;16.00;;;18.10;99.90;;;;;;5029351;28;20342;-62
2021/05/15 11:43:01;;;;;;;20.27;15.10;;;18.30;99.90;;;;;;5029276;28;20289;-62
2021/05/15 11:45:32;;;;;;;21.30;17.20;;;18.30;99.90;;;;;;5028611;28;20293;-62
2021/05/15 11:48:19;;;;;;;20.83;16.10;;;18.20;99.90;;;;;;5029400;28;20596;-62
2021/05/15 11:50:59;;;;;;;19.87;15.30;;;18.10;99.90;;;;;;5028514;28;20595;-62
2021/05/15 11:53:27;;;;;;;20.90;16.40;;;18.00;99.90;;;;;;5029248;28;20727;-62
2021/05/15 11:55:56;;;;;;;24.23;16.40;;;17.80;99.90;;;;;;5028642;28;20472;-62
2021/05/15 11:58:24;;;;;;;21.93;15.73;;;17.50;99.90;;;;;;5029274;28;20233;-62
2021/05/15 12:00:53;;;;;;;23.83;17.40;;;17.50;99.90;;;;;;5025564;28;20253;-62
2021/05/15 12:03:22;;;;;;;21.97;15.90;;;17.40;99.90;;;;;;5027801;28;20238;-62
2021/05/15 12:05:51;;;;;;;19.60;15.37;;;17.30;99.90;;;;;;5023464;28;20246;-61
2021/05/15 12:08:20;;;;;;;20.80;15.53;;;17.20;99.90;;;;;;5027900;28;20694;-62
2021/05/15 12:10:48;;;;;;;19.13;14.97;;;17.40;99.90;;;;;;5040318;28;20592;-62
2021/05/15 12:13:17;;;;;;;17.53;14.93;;;17.80;99.90;;;;;;5036855;28;20648;-62
2021/05/15 12:15:48;;;;;;;21.27;16.17;;;17.90;99.90;;;;;;5026970;28;20233;-62
2021/05/15 12:18:17;;;;;;;21.40;15.97;;;17.90;99.90;;;;;;5029912;28;20245;-62
2021/05/15 12:20:48;;;;;;;21.40;15.50;;;18.00;99.90;;;;;;5029340;28;20229;-62
2021/05/15 12:23:17;;;;;;;18.70;16.00;;;18.00;99.90;;;;;;5030308;28;20709;-62
2021/05/15 12:25:56;;;;;;;17.03;14.33;;;18.20;99.90;;;;;;5030257;28;20299;-62
2021/05/15 12:28:27;;;;;;;17.37;14.97;;;18.40;99.90;;;;;;5029881;28;20240;-62
2021/05/15 12:30:57;;;;;;;17.47;14.37;;;18.40;99.90;;;;;;5029398;28;20290;-62
2021/05/15 12:33:27;;;;;;;22.63;16.73;;;18.40;99.90;;;;;;5029307;28;20230;-62
2021/05/15 12:36:05;;;;;;;19.57;14.23;;;18.30;99.90;;;;;;5029321;28;20253;-62
2021/05/15 12:38:35;;;;;;;18.87;14.73;;;18.20;99.90;;;;;;5027305;28;20232;-62
2021/05/15 12:41:11;;;;;;;17.53;14.43;;;18.20;99.90;;;;;;5029734;28;20248;-62